Time;durP1;ratioP1;P1;durP2;ratioP2;P2;SDS_P1;SDS_P2;PMS_P1;PMS_P2;Temp;Humidity;BMP_temperature;BMP_pressure;BME280_temperature;BME280_humidity;BME280_pressure;Samples;Min_cycle;Max_cycle;Signal;HPM_P1;HPM_P2
2022/03/06 00:03:41;;;;;;;26.97;15.47;;;;;;;-0.65;59.53;101194.59;8224473;34;20517;-74
2022/03/06 00:08:44;;;;;;;30.67;16.30;;;;;;;-0.71;59.63;101200.88;8223729;34;20124;-74
2022/03/06 00:13:48;;;;;;;33.10;16.53;;;;;;;-0.73;59.87;101198.28;8223186;34;20227;-74
2022/03/06 00:18:51;;;;;;;31.90;17.63;;;;;;;-0.77;60.54;101206.28;8223570;34;20439;-74
2022/03/06 00:23:55;;;;;;;31.67;16.73;;;;;;;-0.85;60.29;101205.56;8200392;34;20437;-74
2022/03/06 00:28:59;;;;;;;31.60;17.27;;;;;;;-0.85;60.65;101209.09;8223300;34;20404;-74
2022/03/06 00:34:02;;;;;;;26.80;15.90;;;;;;;-0.93;61.36;101208.38;8222735;34;20986;-74
2022/03/06 00:39:06;;;;;;;28.67;17.30;;;;;;;-0.98;61.70;101216.38;8223618;34;20481;-74
2022/03/06 00:44:10;;;;;;;30.67;17.70;;;;;;;-1.04;61.72;101220.88;8222626;34;20406;-74
2022/03/06 00:49:14;;;;;;;33.63;17.23;;;;;;;-1.16;62.39;101227.28;8200098;34;20134;-74
2022/03/06 00:54:17;;;;;;;37.73;18.33;;;;;;;-1.22;63.13;101224.75;8199510;34;20666;-74
2022/03/06 00:59:22;;;;;;;31.23;17.43;;;;;;;-1.27;63.17;101230.09;8222392;34;20120;-74
2022/03/06 01:04:25;;;;;;;34.10;18.27;;;;;;;-1.40;63.79;101233.84;8222093;34;20416;-74
2022/03/06 01:09:28;;;;;;;36.03;17.33;;;;;;;-1.73;65.22;101230.03;8222172;34;20565;-74
2022/03/06 01:14:32;;;;;;;32.40;17.43;;;;;;;-1.63;65.45;101234.28;8221826;34;20132;-74
2022/03/06 01:19:35;;;;;;;33.63;18.30;;;;;;;-1.64;65.33;101235.19;8222107;34;20455;-74
2022/03/06 01:24:38;;;;;;;32.53;18.10;;;;;;;-1.62;64.96;101243.91;8221816;34;20536;-74
2022/03/06 01:29:44;;;;;;;32.37;18.33;;;;;;;-1.68;65.33;101251.91;8231933;34;20557;-74
2022/03/06 01:34:47;;;;;;;38.90;17.93;;;;;;;-1.60;65.18;101247.41;8265333;34;20567;-74
2022/03/06 01:39:50;;;;;;;35.23;17.17;;;;;;;-1.51;64.83;101251.63;8302908;34;20242;-74
2022/03/06 01:44:55;;;;;;;30.37;18.67;;;;;;;-1.45;64.37;101243.66;8301462;34;20544;-74
2022/03/06 01:49:58;;;;;;;29.57;16.30;;;;;;;-1.39;64.32;101246.16;8301421;34;20565;-72
2022/03/06 01:55:01;;;;;;;31.27;17.77;;;;;;;-1.37;63.95;101251.38;8300823;34;20577;-72
2022/03/06 02:00:10;;;;;;;35.10;19.37;;;;;;;-1.49;64.25;101253.34;8299151;34;20464;-72
2022/03/06 02:05:16;;;;;;;34.17;19.33;;;;;;;-1.51;64.70;101251.63;8299242;34;20592;-72
2022/03/06 02:10:20;;;;;;;36.20;20.50;;;;;;;-1.63;65.27;101248.31;8305135;34;20440;-72
2022/03/06 02:15:24;;;;;;;35.70;19.53;;;;;;;-1.53;65.35;101243.78;8305116;34;20195;-74
2022/03/06 02:20:28;;;;;;;33.73;19.30;;;;;;;-1.56;65.79;101245.56;8306305;34;20417;-73
2022/03/06 02:25:35;;;;;;;34.13;18.97;;;;;;;-1.37;65.70;101239.09;8303203;34;20974;-74
2022/03/06 02:30:41;;;;;;;36.93;19.83;;;;;;;-1.40;65.40;101236.50;8301076;34;20190;-73
2022/03/06 02:35:44;;;;;;;38.93;19.93;;;;;;;-1.45;65.89;101241.00;8300508;34;20194;-73
2022/03/06 02:40:48;;;;;;;37.30;20.33;;;;;;;-1.35;66.14;101241.69;8299410;34;20314;-74
2022/03/06 02:45:51;;;;;;;38.87;20.13;;;;;;;-1.05;65.58;101234.97;8302980;34;20533;-73
2022/03/06 02:50:54;;;;;;;39.00;20.33;;;;;;;-1.07;65.48;101239.41;8305711;34;20435;-73
2022/03/06 02:55:59;;;;;;;38.80;20.23;;;;;;;-1.24;65.83;101235.31;8304508;34;20480;-73
2022/03/06 03:01:02;;;;;;;36.87;20.07;;;;;;;-1.17;65.07;101236.97;8303745;34;20530;-73
2022/03/06 03:06:07;;;;;;;36.87;19.13;;;;;;;-1.07;64.90;101237.66;8300625;34;20459;-73
2022/03/06 03:11:11;;;;;;;35.77;19.97;;;;;;;-1.10;65.50;101231.56;8300101;34;20198;-73
2022/03/06 03:16:14;;;;;;;38.27;18.80;;;;;;;-1.06;65.45;101234.13;8298171;34;20584;-73
2022/03/06 03:21:17;;;;;;;35.50;19.93;;;;;;;-1.10;65.96;101234.19;8297885;34;20431;-73
2022/03/06 03:26:22;;;;;;;35.90;19.13;;;;;;;-1.00;66.00;101239.25;8298285;34;20950;-73
2022/03/06 03:31:26;;;;;;;34.13;19.13;;;;;;;-0.91;65.71;101232.94;8298814;34;20295;-73
2022/03/06 03:36:29;;;;;;;36.03;19.43;;;;;;;-0.87;65.60;101233.78;8301032;34;20144;-73
2022/03/06 03:41:33;;;;;;;28.90;17.80;;;;;;;-0.74;65.09;101235.22;8305242;34;20175;-73
2022/03/06 03:46:36;;;;;;;31.07;17.83;;;;;;;-0.65;64.59;101242.13;8303773;34;20496;-74
2022/03/06 03:51:40;;;;;;;37.57;18.70;;;;;;;-0.66;64.83;101243.00;8298490;34;20207;-73
2022/03/06 03:56:44;;;;;;;31.23;17.93;;;;;;;-0.72;64.77;101244.00;8296948;34;20728;-73
2022/03/06 04:01:47;;;;;;;34.60;19.60;;;;;;;-0.90;65.57;101241.75;8277788;34;21164;-73
2022/03/06 04:06:50;;;;;;;41.97;21.40;;;;;;;-0.86;65.91;101246.91;8281475;34;20664;-73
2022/03/06 04:11:54;;;;;;;37.97;19.53;;;;;;;-0.76;65.46;101248.47;8304007;34;20454;-73
2022/03/06 04:16:57;;;;;;;33.23;19.00;;;;;;;-0.95;66.24;101260.28;8301913;34;20541;-74
2022/03/06 04:22:00;;;;;;;38.17;19.90;;;;;;;-1.10;67.03;101263.22;8302449;34;20435;-73
2022/03/06 04:27:05;;;;;;;39.17;19.60;;;;;;;-1.06;66.92;101257.00;8302548;34;20617;-73
2022/03/06 04:32:08;;;;;;;37.00;20.50;;;;;;;-1.30;67.00;101250.41;8277332;34;20255;-73
2022/03/06 04:37:11;;;;;;;32.23;18.60;;;;;;;-1.58;70.85;101255.28;8299733;34;20446;-73
2022/03/06 04:42:16;;;;;;;37.43;19.37;;;;;;;-1.70;71.34;101258.97;8298740;34;20989;-73
2022/03/06 04:47:19;;;;;;;39.43;21.47;;;;;;;-1.64;71.94;101266.81;8300773;34;20605;-73
2022/03/06 04:52:22;;;;;;;35.37;18.93;;;;;;;-1.59;71.09;101275.50;8299327;34;20247;-73
2022/03/06 04:57:27;;;;;;;42.53;22.23;;;;;;;-1.37;70.54;101288.28;8300040;34;20428;-74
2022/03/06 05:02:30;;;;;;;37.67;19.53;;;;;;;-1.34;69.10;101275.94;8304711;34;20152;-73
2022/03/06 05:07:33;;;;;;;39.87;18.93;;;;;;;-1.31;68.48;101281.16;8280750;34;20202;-73
2022/03/06 05:12:40;;;;;;;37.53;19.63;;;;;;;-1.36;68.37;101285.66;8298188;34;20685;-74
2022/03/06 05:17:43;;;;;;;33.73;19.67;;;;;;;-1.47;68.29;101292.88;8272241;34;20164;-74
2022/03/06 05:22:46;;;;;;;36.83;19.50;;;;;;;-1.50;68.55;101285.88;8296528;34;20935;-73
2022/03/06 05:27:51;;;;;;;37.60;20.03;;;;;;;-1.51;68.63;101288.53;8271988;34;20435;-74
2022/03/06 05:32:54;;;;;;;35.97;20.27;;;;;;;-1.48;68.65;101293.75;8291285;34;20222;-73
2022/03/06 05:37:57;;;;;;;39.53;19.30;;;;;;;-1.56;68.76;101291.25;8290273;34;20183;-74
2022/03/06 05:43:01;;;;;;;38.13;20.77;;;;;;;-1.52;68.50;101292.94;8292075;34;20609;-73
2022/03/06 05:48:05;;;;;;;38.93;21.33;;;;;;;-1.59;69.32;101296.59;8293076;34;20436;-73
2022/03/06 05:53:09;;;;;;;37.90;20.73;;;;;;;-1.56;69.40;101301.81;8293826;34;21126;-73
2022/03/06 05:58:14;;;;;;;36.93;19.77;;;;;;;-1.47;69.52;101304.28;8294442;34;20483;-74
2022/03/06 06:03:17;;;;;;;36.50;19.80;;;;;;;-1.49;69.06;101316.59;8299264;34;20612;-74
2022/03/06 06:08:20;;;;;;;35.17;19.17;;;;;;;-1.41;69.24;101324.38;8304849;34;20641;-74
2022/03/06 06:13:24;;;;;;;34.77;18.37;;;;;;;-1.40;68.72;101321.75;8305208;34;20918;-74
2022/03/06 06:18:30;;;;;;;34.90;19.27;;;;;;;-1.35;68.25;101326.06;8313458;34;20451;-74
2022/03/06 06:23:33;;;;;;;34.30;19.93;;;;;;;-1.37;68.15;101334.00;8295236;34;20431;-74
2022/03/06 06:28:39;;;;;;;37.77;18.73;;;;;;;-1.40;68.07;101331.38;8315795;34;20176;-74
2022/03/06 06:33:42;;;;;;;36.57;19.33;;;;;;;-1.43;68.32;101328.81;8306605;34;20235;-74
2022/03/06 06:38:45;;;;;;;39.87;18.80;;;;;;;-1.51;68.64;101326.31;8307513;34;20172;-74
2022/03/06 06:43:50;;;;;;;38.63;18.60;;;;;;;-1.62;69.13;101344.03;8281133;34;20613;-74
2022/03/06 06:48:53;;;;;;;32.57;18.67;;;;;;;-1.56;69.30;101350.97;8301459;34;20467;-73
2022/03/06 06:53:56;;;;;;;35.33;19.23;;;;;;;-1.36;69.20;101351.53;8302218;34;21118;-74
2022/03/06 06:59:01;;;;;;;33.37;18.80;;;;;;;-1.15;68.50;101365.25;8283383;34;20556;-74
2022/03/06 07:04:04;;;;;;;28.83;17.80;;;;;;;-1.23;68.33;101366.28;8302044;34;20227;-73
2022/03/06 07:09:07;;;;;;;33.13;18.27;;;;;;;-1.38;69.19;101366.50;8299003;34;20439;-73
2022/03/06 07:14:11;;;;;;;36.17;20.10;;;;;;;-0.87;68.37;101374.44;8297602;34;20439;-74
2022/03/06 07:19:16;;;;;;;33.57;19.20;;;;;;;-1.07;68.68;101374.81;8296927;34;20996;-74
2022/03/06 07:24:19;;;;;;;33.23;19.00;;;;;;;-0.97;69.23;101381.63;8297693;34;20154;-74
2022/03/06 07:29:23;;;;;;;38.83;20.17;;;;;;;-0.88;69.40;101395.56;8298363;34;20163;-74
2022/03/06 07:34:26;;;;;;;38.73;19.57;;;;;;;-0.62;68.54;101392.47;8299676;34;20438;-73
2022/03/06 07:39:29;;;;;;;36.67;19.53;;;;;;;-0.57;68.17;101388.00;8291232;34;20498;-74
2022/03/06 07:44:34;;;;;;;38.43;20.50;;;;;;;-0.74;69.12;101399.72;8290556;34;20522;-75
2022/03/06 07:49:37;;;;;;;32.73;18.17;;;;;;;-0.64;68.59;101400.41;8293305;34;20242;-73
2022/03/06 07:54:40;;;;;;;33.07;18.27;;;;;;;-0.45;68.07;101403.56;8299714;34;20279;-73
2022/03/06 07:59:44;;;;;;;34.10;19.07;;;;;;;-0.09;66.97;101406.38;8310015;34;20184;-74
2022/03/06 08:04:47;;;;;;;34.77;18.03;;;;;;;0.31;66.44;101409.06;8312154;34;20456;-74
2022/03/06 08:09:50;;;;;;;33.50;19.30;;;;;;;0.57;65.26;101419.03;8303479;34;20438;-73
2022/03/06 08:14:55;;;;;;;30.20;18.33;;;;;;;0.65;65.36;101413.56;8298529;34;20492;-74
2022/03/06 08:19:58;;;;;;;30.53;18.43;;;;;;;0.93;65.38;101418.19;8298697;34;20463;-74
2022/03/06 08:25:02;;;;;;;30.77;18.20;;;;;;;1.11;64.91;101417.75;8274485;34;20939;-74
2022/03/06 08:30:08;;;;;;;32.73;17.67;;;;;;;1.27;65.61;101423.53;8295559;34;20483;-74
2022/03/06 08:35:12;;;;;;;35.70;18.13;;;;;;;1.64;64.12;101443.72;8295415;34;20312;-74
2022/03/06 08:40:15;;;;;;;32.03;18.40;;;;;;;1.76;63.48;101434.59;8297699;34;20196;-74
2022/03/06 08:45:20;;;;;;;26.30;16.10;;;;;;;1.90;63.67;101441.25;8295346;34;20438;-75
2022/03/06 08:50:23;;;;;;;23.05;15.40;;;;;;;2.13;62.90;101434.41;8301120;34;20176;-74
2022/03/06 08:55:26;;;;;;;20.27;13.88;;;;;;;2.46;62.24;101429.88;8281291;34;20463;-75
2022/03/06 09:00:31;;;;;;;23.05;14.50;;;;;;;2.72;61.86;101428.25;8278837;34;20440;-74
2022/03/06 09:05:38;;;;;;;23.58;15.00;;;;;;;2.92;61.31;101424.94;8301239;34;20160;-75
2022/03/06 09:10:41;;;;;;;25.73;15.27;;;;;;;3.02;60.53;101429.06;8302412;34;20315;-75
2022/03/06 09:15:46;;;;;;;22.63;14.45;;;;;;;3.02;60.51;101440.53;8299906;34;20448;-75
2022/03/06 09:20:49;;;;;;;25.13;15.23;;;;;;;3.13;60.30;101434.88;8299253;34;20152;-75
2022/03/06 09:25:52;;;;;;;27.23;17.00;;;;;;;3.28;59.89;101431.69;8308426;34;20231;-75
2022/03/06 09:30:56;;;;;;;25.27;15.35;;;;;;;3.28;59.99;101436.13;8300636;34;20199;-74
2022/03/06 09:36:01;;;;;;;21.23;14.68;;;;;;;3.59;59.36;101440.38;8295757;34;20947;-75
2022/03/06 09:41:05;;;;;;;18.83;13.40;;;;;;;3.65;58.43;101441.03;8290616;34;20593;-75
2022/03/06 09:46:10;;;;;;;21.88;12.45;;;;;;;3.50;58.18;101452.19;8288781;34;20543;-74
2022/03/06 09:51:13;;;;;;;16.48;12.48;;;;;;;3.53;58.10;101457.41;8291215;34;20148;-74
2022/03/06 09:56:16;;;;;;;15.90;10.13;;;;;;;3.75;58.32;101459.31;8291145;34;20498;-74
2022/03/06 10:01:21;;;;;;;13.10;9.55;;;;;;;3.76;58.28;101469.00;8263395;34;1069294;-74
2022/03/06 10:06:24;;;;;;;15.77;10.55;;;;;;;3.70;57.64;101460.34;8292181;34;20152;-75
2022/03/06 10:11:28;;;;;;;15.30;10.32;;;;;;;3.81;57.61;101453.78;8290817;34;20443;-74
2022/03/06 10:16:33;;;;;;;14.55;10.18;;;;;;;3.86;57.70;101465.97;8291386;34;20520;-74
2022/03/06 10:21:39;;;;;;;12.98;8.90;;;;;;;4.13;57.17;101464.09;8288461;34;20150;-74
2022/03/06 10:26:42;;;;;;;15.38;10.02;;;;;;;4.24;56.05;101457.53;8290945;34;20191;-75
2022/03/06 10:31:58;;;;;;;13.13;9.77;;;;;;;4.47;55.33;101453.97;8294926;34;20455;-75
2022/03/06 10:37:02;;;;;;;12.57;8.63;;;;;;;4.56;55.31;101459.81;8296779;34;20421;-74
2022/03/06 10:42:09;;;;;;;13.38;9.23;;;;;;;4.73;54.08;101467.16;8297257;34;20194;-75
2022/03/06 10:47:14;;;;;;;14.68;9.60;;;;;;;4.89;53.97;101456.75;8301308;34;20435;-76
2022/03/06 10:52:20;;;;;;;11.15;8.63;;;;;;;5.02;53.22;101465.16;8305838;34;20558;-76
2022/03/06 10:57:25;;;;;;;11.82;8.20;;;;;;;5.26;52.14;101452.59;8299106;34;20194;-74
2022/03/06 11:02:29;;;;;;;15.90;8.68;;;;;;;5.70;51.53;101453.41;8298567;34;20208;-74
2022/03/06 11:07:32;;;;;;;15.57;8.70;;;;;;;6.28;50.39;101454.34;8275659;34;20572;-73
2022/03/06 11:12:36;;;;;;;10.68;8.85;;;;;;;6.52;49.02;101450.53;8295812;34;20430;-74
2022/03/06 11:17:42;;;;;;;12.10;7.65;;;;;;;6.44;48.85;101452.72;8299042;34;20424;-74
2022/03/06 11:22:52;;;;;;;11.90;8.10;;;;;;;6.46;48.58;101447.31;8313733;34;20504;-74
2022/03/06 11:28:10;;;;;;;12.07;8.75;;;;;;;6.79;48.14;101452.84;8317670;34;20428;-75
2022/03/06 11:33:14;;;;;;;13.18;8.05;;;;;;;7.09;45.81;101447.84;8301651;34;20140;-75
2022/03/06 11:38:18;;;;;;;12.88;8.85;;;;;;;6.73;46.09;101443.31;8299611;34;20447;-75
2022/03/06 11:43:43;;;;;;;10.27;8.23;;;;;;;6.69;46.04;101447.09;8298975;34;20152;-75
2022/03/06 11:49:13;;;;;;;10.73;8.40;;;;;;;6.83;46.01;101436.63;8299540;34;20547;-75
2022/03/06 11:54:26;;;;;;;10.00;7.45;;;;;;;7.13;45.25;101435.19;8302337;34;20511;-75
2022/03/06 11:59:38;;;;;;;11.70;7.55;;;;;;;7.21;44.73;101424.97;8316498;28;20381;-73
2022/03/06 12:04:46;;;;;;;11.13;7.50;;;;;;;7.32;43.42;101425.28;8303038;34;20144;-73
2022/03/06 12:09:53;;;;;;;12.15;8.38;;;;;;;7.01;43.96;101429.50;8284581;34;20448;-73
2022/03/06 12:14:58;;;;;;;12.40;8.35;;;;;;;6.49;44.87;101431.16;8249538;34;20153;-73
2022/03/06 12:20:25;;;;;;;9.57;7.72;;;;;;;6.20;44.69;101440.50;8249317;34;20640;-73
2022/03/06 12:25:33;;;;;;;13.18;8.20;;;;;;;6.49;44.99;101433.81;8250067;34;20155;-74
2022/03/06 12:30:38;;;;;;;8.20;7.13;;;;;;;6.34;44.05;101433.59;8250553;34;20159;-75
2022/03/06 12:35:43;;;;;;;11.15;7.75;;;;;;;5.86;44.06;101429.56;8259692;34;20457;-73
2022/03/06 12:40:46;;;;;;;10.05;6.60;;;;;;;5.34;45.32;101428.31;8262859;34;20148;-73
2022/03/06 12:45:50;;;;;;;11.32;8.15;;;;;;;5.82;45.46;101419.97;8262418;34;20164;-73
2022/03/06 12:50:55;;;;;;;10.98;7.47;;;;;;;6.66;41.06;101420.53;8262484;34;20436;-73
2022/03/06 12:55:59;;;;;;;10.20;7.40;;;;;;;5.87;40.57;101412.66;8261963;34;20180;-73
2022/03/06 13:01:07;;;;;;;10.80;7.20;;;;;;;5.06;43.06;101410.81;8251300;34;20708;-74
2022/03/06 13:06:17;;;;;;;8.55;6.32;;;;;;;5.15;43.44;101413.09;8249798;34;20156;-73
2022/03/06 13:11:21;;;;;;;8.40;6.25;;;;;;;5.59;41.92;101407.66;8258107;34;20546;-73
2022/03/06 13:16:26;;;;;;;7.97;6.03;;;;;;;5.44;41.42;101403.00;8248652;34;20437;-73
2022/03/06 13:21:31;;;;;;;8.27;6.38;;;;;;;5.16;41.81;101404.19;8248056;34;20549;-73
2022/03/06 13:26:34;;;;;;;13.75;10.82;;;;;;;5.01;42.76;101402.16;8249407;34;21193;-73
2022/03/06 13:31:43;;;;;;;8.93;7.15;;;;;;;4.68;43.81;101399.91;8243189;34;20660;-73
2022/03/06 13:36:48;;;;;;;9.60;6.10;;;;;;;4.59;44.40;101402.94;8242618;34;20417;-73
2022/03/06 13:41:54;;;;;;;7.90;6.15;;;;;;;4.43;44.26;101402.69;8242029;34;20693;-73
2022/03/06 13:46:57;;;;;;;8.23;6.75;;;;;;;4.28;44.22;101398.84;8242456;35;20284;-73
2022/03/06 13:52:09;;;;;;;11.63;6.40;;;;;;;4.55;44.04;101393.34;8241803;34;20239;-73
2022/03/06 13:57:13;;;;;;;8.95;6.78;;;;;;;4.86;42.90;101389.47;8237818;35;20149;-74
2022/03/06 14:02:16;;;;;;;10.38;6.45;;;;;;;4.71;42.01;101398.94;8243691;34;20141;-73
2022/03/06 14:07:25;;;;;;;10.48;6.35;;;;;;;4.65;41.90;101392.06;8246867;34;20206;-72
2022/03/06 14:12:32;;;;;;;13.02;7.35;;;;;;;4.72;41.76;101388.22;8244676;34;20298;-73
2022/03/06 14:17:37;;;;;;;8.77;6.40;;;;;;;4.75;41.87;101389.91;8245742;34;20879;-74
2022/03/06 14:22:42;;;;;;;21.40;11.13;;;;;;;4.60;42.18;101384.25;8247642;34;20141;-73
2022/03/06 14:27:47;;;;;;;34.85;18.88;;;;;;;5.92;41.37;101386.63;8244654;34;20561;-73
2022/03/06 14:32:50;;;;;;;7.50;5.93;;;;;;;7.01;37.19;101377.91;8244076;34;20149;-73
2022/03/06 14:37:55;;;;;;;11.18;6.00;;;;;;;8.06;36.02;101378.63;8244330;34;20180;-73
2022/03/06 14:42:59;;;;;;;10.35;5.75;;;;;;;7.81;35.73;101379.09;8239226;34;20991;-73
2022/03/06 14:48:02;;;;;;;8.18;5.93;;;;;;;5.79;38.59;101371.22;8241983;34;20483;-75
2022/03/06 14:53:06;;;;;;;9.68;6.30;;;;;;;4.88;41.15;101375.13;8240641;34;20521;-75
2022/03/06 14:58:10;;;;;;;8.05;6.00;;;;;;;4.65;42.13;101381.41;8244024;34;20547;-74
2022/03/06 15:03:13;;;;;;;9.25;6.80;;;;;;;4.60;41.62;101381.59;8245210;34;20445;-75
2022/03/06 15:08:18;;;;;;;8.07;6.78;;;;;;;5.66;40.83;101368.28;8249146;34;20161;-75
2022/03/06 15:13:22;;;;;;;8.80;6.28;;;;;;;8.98;35.53;101368.09;8251495;34;20273;-75
2022/03/06 15:18:25;;;;;;;10.43;6.97;;;;;;;10.03;33.09;101368.00;8251131;34;20235;-74
2022/03/06 15:23:29;;;;;;;10.50;7.32;;;;;;;6.78;36.81;101371.88;8249862;34;20184;-74
2022/03/06 15:28:33;;;;;;;9.23;6.80;;;;;;;5.30;39.45;101376.09;8250263;34;20164;-74
2022/03/06 15:33:36;;;;;;;9.48;6.97;;;;;;;4.32;41.59;101380.97;8250329;34;20160;-74
2022/03/06 15:38:40;;;;;;;14.40;8.65;;;;;;;4.28;42.66;101376.66;8258272;34;20439;-74
2022/03/06 15:43:44;;;;;;;10.70;7.72;;;;;;;5.76;39.67;101372.28;8250171;34;20437;-74
2022/03/06 15:48:47;;;;;;;9.10;6.90;;;;;;;6.40;38.51;101363.91;8250082;34;20251;-74
2022/03/06 15:53:52;;;;;;;12.23;7.32;;;;;;;5.43;39.97;101374.59;8248958;34;20231;-74
2022/03/06 15:58:55;;;;;;;10.10;7.93;;;;;;;4.47;41.45;101374.16;8250114;34;20553;-74
2022/03/06 16:03:58;;;;;;;10.73;7.47;;;;;;;3.78;42.35;101379.47;8249341;34;20540;-74
2022/03/06 16:09:03;;;;;;;11.30;7.88;;;;;;;3.80;42.54;101381.16;8251694;34;21193;-74
2022/03/06 16:14:08;;;;;;;12.13;8.05;;;;;;;3.44;43.00;101378.03;8260991;34;20520;-74
2022/03/06 16:19:10;;;;;;;9.65;8.63;;;;;;;3.57;43.88;101368.72;8262862;34;20575;-74
2022/03/06 16:24:15;;;;;;;11.52;8.32;;;;;;;4.05;42.21;101374.91;8262847;34;21057;-74
2022/03/06 16:29:18;;;;;;;10.10;7.47;;;;;;;4.21;41.98;101380.50;8264678;34;20697;-74
2022/03/06 16:34:21;;;;;;;12.77;8.40;;;;;;;3.90;41.90;101382.53;8268649;34;20536;-74
2022/03/06 16:39:26;;;;;;;15.27;8.10;;;;;;;3.56;42.72;101382.91;8268808;34;20470;-74
2022/03/06 16:44:29;;;;;;;18.75;11.15;;;;;;;3.28;43.75;101383.88;8271106;34;20526;-74
2022/03/06 16:49:32;;;;;;;18.05;10.80;;;;;;;3.06;44.55;101388.19;8266242;34;21041;-74
2022/03/06 16:54:41;;;;;;;13.93;9.95;;;;;;;2.84;44.66;101380.94;8262414;34;20450;-74
2022/03/06 16:59:44;;;;;;;12.20;9.13;;;;;;;2.84;44.62;101396.00;8263766;34;21231;-74
2022/03/06 17:04:47;;;;;;;14.07;9.50;;;;;;;2.60;45.37;101400.31;8257696;34;20472;-74
2022/03/06 17:09:52;;;;;;;11.60;8.93;;;;;;;2.37;45.63;101391.25;8252401;34;20256;-74
2022/03/06 17:14:55;;;;;;;13.40;7.97;;;;;;;2.13;46.29;101390.22;8259504;34;20199;-74
2022/03/06 17:19:58;;;;;;;11.98;8.65;;;;;;;1.99;46.65;101395.06;8247687;34;20550;-74
2022/03/06 17:25:03;;;;;;;13.98;8.55;;;;;;;1.84;47.44;101392.88;8246375;34;20578;-74
2022/03/06 17:30:07;;;;;;;11.55;8.30;;;;;;;1.71;47.57;101393.19;8246825;34;20939;-74
2022/03/06 17:35:11;;;;;;;11.93;8.45;;;;;;;1.61;47.91;101396.13;8246029;34;20439;-74
2022/03/06 17:40:18;;;;;;;12.48;8.75;;;;;;;1.54;48.29;101406.06;8245590;34;20480;-74
2022/03/06 17:45:21;;;;;;;14.65;8.98;;;;;;;1.43;49.15;101405.47;8250454;35;20704;-74
2022/03/06 17:50:24;;;;;;;13.65;9.52;;;;;;;1.32;49.34;101405.75;8248318;34;20378;-74
2022/03/06 17:55:28;;;;;;;17.27;9.57;;;;;;;1.21;49.55;101402.53;8247808;35;20145;-74
2022/03/06 18:00:31;;;;;;;13.80;9.70;;;;;;;1.03;49.62;101409.13;8274183;28;20871;-74
2022/03/06 18:05:35;;;;;;;16.30;9.85;;;;;;;0.91;49.70;101406.81;8300615;34;20512;-73
2022/03/06 18:10:39;;;;;;;15.47;9.37;;;;;;;0.70;49.75;101409.06;8276976;34;20185;-74
2022/03/06 18:15:42;;;;;;;15.47;9.60;;;;;;;0.64;49.60;101419.78;8245175;34;20439;-74
2022/03/06 18:21:08;;;;;;;16.90;10.85;;;;;;;0.57;49.78;101426.97;8247104;34;20435;-74
2022/03/06 18:26:17;;;;;;;14.52;10.68;;;;;;;0.57;50.03;101432.25;8245080;35;21025;-74
2022/03/06 18:31:47;;;;;;;15.98;10.23;;;;;;;0.53;50.41;101435.03;8245376;34;20232;-73
2022/03/06 18:36:51;;;;;;;15.00;9.85;;;;;;;0.51;50.69;101442.13;8200237;35;20272;-74
2022/03/06 18:41:56;;;;;;;13.40;10.17;;;;;;;0.51;50.82;101450.91;8221313;35;20460;-73
2022/03/06 18:47:01;;;;;;;17.43;11.90;;;;;;;0.50;51.03;101445.69;8244866;34;20434;-73
2022/03/06 18:52:05;;;;;;;19.17;11.77;;;;;;;0.57;51.45;101449.91;8249064;34;20672;-73
2022/03/06 18:57:10;;;;;;;21.60;14.00;;;;;;;0.61;51.10;101454.22;8248053;34;20964;-73
2022/03/06 19:02:13;;;;;;;22.90;13.67;;;;;;;0.57;51.24;101445.47;8251043;34;20468;-73
2022/03/06 19:07:16;;;;;;;21.57;13.50;;;;;;;0.44;51.51;101459.00;8247652;34;20145;-73
2022/03/06 19:12:21;;;;;;;22.13;13.30;;;;;;;0.30;51.76;101452.28;8219095;34;20937;-73
2022/03/06 19:17:24;;;;;;;24.97;16.13;;;;;;;0.33;52.17;101457.50;8244538;34;20181;-74
2022/03/06 19:22:27;;;;;;;25.50;14.70;;;;;;;0.17;53.24;101462.22;8246878;34;20566;-74
2022/03/06 19:27:31;;;;;;;17.05;10.60;;;;;;;0.07;53.69;101460.66;8254769;34;20466;-74
2022/03/06 19:32:35;;;;;;;19.77;11.93;;;;;;;0.09;53.88;101461.50;8248955;34;20574;-74
2022/03/06 19:37:38;;;;;;;20.00;11.97;;;;;;;0.28;53.42;101479.63;8247675;34;20202;-73
2022/03/06 19:42:42;;;;;;;19.80;12.47;;;;;;;0.29;53.16;101469.00;8247877;34;20203;-73
2022/03/06 19:47:48;;;;;;;21.70;13.93;;;;;;;0.24;53.65;101465.59;8256484;34;20454;-74
2022/03/06 19:52:52;;;;;;;22.77;15.53;;;;;;;0.24;54.06;101477.94;8280225;34;20467;-73
2022/03/06 19:57:57;;;;;;;32.90;18.67;;;;;;;0.23;54.31;101478.84;8290090;34;20144;-74
2022/03/06 20:03:00;;;;;;;34.60;21.97;;;;;;;0.16;54.48;101483.38;8275157;34;20544;-74
2022/03/06 20:08:04;;;;;;;34.90;23.40;;;;;;;-0.08;55.15;101484.75;8268134;34;20948;-73
2022/03/06 20:13:12;;;;;;;32.53;20.70;;;;;;;-0.16;55.49;101495.47;8267869;34;21025;-73
2022/03/06 20:18:15;;;;;;;33.80;21.93;;;;;;;-0.19;55.65;101499.91;8268285;34;20141;-74
2022/03/06 20:23:18;;;;;;;34.33;21.30;;;;;;;-0.20;55.47;101495.53;8267630;34;20681;-73
2022/03/06 20:28:22;;;;;;;34.80;21.37;;;;;;;-0.23;55.38;101503.53;8268524;34;20585;-74
2022/03/06 20:33:26;;;;;;;36.07;21.97;;;;;;;-0.30;55.94;101506.28;8264495;34;20461;-74
2022/03/06 20:38:30;;;;;;;37.00;22.40;;;;;;;-0.28;56.35;101507.09;8263098;34;21051;-74
2022/03/06 20:43:35;;;;;;;33.47;20.50;;;;;;;-0.22;56.54;101514.06;8260874;34;20152;-73
2022/03/06 20:48:39;;;;;;;37.73;21.70;;;;;;;-0.12;56.23;101514.75;8248220;34;20423;-72
2022/03/06 20:53:42;;;;;;;31.50;20.10;;;;;;;-0.08;56.37;101516.47;8226008;34;20240;-74
2022/03/06 20:58:48;;;;;;;32.57;20.00;;;;;;;-0.04;56.60;101515.47;8248540;34;20136;-74
2022/03/06 21:03:51;;;;;;;31.20;18.50;;;;;;;-0.08;55.92;101517.31;8239419;34;20979;-74
2022/03/06 21:08:54;;;;;;;29.53;17.80;;;;;;;-0.12;56.31;101518.25;8249376;34;20452;-74
2022/03/06 21:13:58;;;;;;;24.37;17.47;;;;;;;-0.20;56.68;101514.88;8249624;34;20471;-74
2022/03/06 21:19:03;;;;;;;27.17;16.07;;;;;;;-0.28;56.59;101514.16;8248741;34;20875;-73
2022/03/06 21:24:08;;;;;;;27.57;16.23;;;;;;;-0.41;57.00;101507.34;8247325;34;20516;-74
2022/03/06 21:29:12;;;;;;;23.77;15.30;;;;;;;-0.43;57.23;101504.75;8246672;34;20145;-74
2022/03/06 21:34:15;;;;;;;22.87;14.47;;;;;;;-0.39;57.10;101510.84;8247027;34;20388;-74
2022/03/06 21:39:18;;;;;;;22.53;15.10;;;;;;;-0.36;57.34;101516.94;8246503;34;20441;-72
2022/03/06 21:44:23;;;;;;;22.37;15.37;;;;;;;-0.32;57.53;101523.06;8247523;35;20549;-73
2022/03/06 21:49:27;;;;;;;21.83;13.00;;;;;;;-0.41;57.22;101532.00;8249695;34;20156;-73
2022/03/06 21:54:30;;;;;;;21.37;13.10;;;;;;;-0.37;57.01;101533.69;8225052;35;20149;-73
2022/03/06 21:59:34;;;;;;;20.10;12.77;;;;;;;-0.40;57.64;101530.22;8244151;34;20706;-74
2022/03/06 22:04:38;;;;;;;16.97;11.10;;;;;;;-0.44;57.29;101534.66;8222125;34;20951;-74
2022/03/06 22:09:41;;;;;;;23.40;13.07;;;;;;;-0.34;57.40;101535.41;8248961;34;20144;-74
2022/03/06 22:14:45;;;;;;;19.07;13.10;;;;;;;-0.17;57.36;101521.88;8244491;35;20172;-73
2022/03/06 22:19:48;;;;;;;20.63;13.30;;;;;;;-0.17;57.40;101520.09;8243318;34;20489;-74
2022/03/06 22:24:51;;;;;;;20.83;14.13;;;;;;;-0.15;57.33;101520.97;8248693;34;20512;-73
2022/03/06 22:29:56;;;;;;;22.20;14.43;;;;;;;-0.17;58.08;101516.59;8251409;34;20563;-73
2022/03/06 22:34:59;;;;;;;18.87;11.97;;;;;;;-0.25;58.34;101513.22;8249244;34;20236;-73
2022/03/06 22:40:03;;;;;;;19.07;12.20;;;;;;;-0.42;58.51;101517.03;8226206;34;20536;-73
2022/03/06 22:45:11;;;;;;;19.40;12.63;;;;;;;-0.42;59.30;101521.47;8248681;34;20452;-74
2022/03/06 22:50:14;;;;;;;18.33;12.07;;;;;;;-0.32;59.31;101521.28;8248687;34;20530;-74
2022/03/06 22:55:17;;;;;;;18.37;11.87;;;;;;;-0.22;59.48;101515.81;8248095;34;20969;-73
2022/03/06 23:01:19;;;;;;;20.47;14.13;;;;;;;-0.25;60.63;101521.16;8249537;34;20463;-73
2022/03/06 23:11:42;;;;;;;23.47;14.50;;;;;;;-0.24;60.82;101513.22;8248457;34;20157;-73
2022/03/06 23:16:46;;;;;;;21.57;14.77;;;;;;;-0.19;61.24;101528.97;8223064;34;20215;-73
2022/03/06 23:21:50;;;;;;;26.57;16.47;;;;;;;-0.28;63.01;101522.94;8246498;34;20453;-73
2022/03/06 23:26:53;;;;;;;27.77;15.57;;;;;;;-0.36;63.63;101513.41;8224389;34;20149;-73